createdAt,value
2024-02-07T00:00:42.991Z,34.68
2024-02-07T00:01:42.992Z,34.68
2024-02-07T00:02:43.020Z,34.70
2024-02-07T00:03:43.111Z,34.55
2024-02-07T00:04:43.204Z,34.57
2024-02-07T00:05:43.262Z,34.57
2024-02-07T00:06:43.170Z,34.63
2024-02-07T00:07:43.264Z,34.63
2024-02-07T00:08:43.266Z,34.67
2024-02-07T00:09:43.303Z,34.62
2024-02-07T00:10:43.365Z,34.59
2024-02-07T00:11:43.339Z,34.66
2024-02-07T00:12:43.383Z,34.68
2024-02-07T00:13:43.498Z,34.64
2024-02-07T00:14:43.451Z,34.63
2024-02-07T00:15:43.496Z,34.64
2024-02-07T00:16:43.610Z,34.70
2024-02-07T00:17:43.592Z,34.62
2024-02-07T00:18:43.683Z,34.67
2024-02-07T00:19:43.734Z,34.60
2024-02-07T00:20:43.665Z,34.59
2024-02-07T00:21:43.720Z,34.60
2024-02-07T00:22:43.771Z,34.62
2024-02-07T00:23:43.730Z,34.59
2024-02-07T00:24:43.751Z,34.62
2024-02-07T00:25:43.843Z,34.55
2024-02-07T00:26:43.813Z,34.57
2024-02-07T00:27:43.827Z,34.56
2024-02-07T00:28:43.877Z,34.59
2024-02-07T00:29:43.870Z,34.59
2024-02-07T00:30:43.876Z,34.55
2024-02-07T00:31:43.934Z,34.58
2024-02-07T00:32:43.990Z,34.57
2024-02-07T00:33:43.960Z,34.62
2024-02-07T00:34:44.105Z,34.60
2024-02-07T00:35:44.070Z,34.63
2024-02-07T00:36:44.028Z,34.59
2024-02-07T00:37:44.099Z,34.56
2024-02-07T00:38:44.052Z,34.53
2024-02-07T00:39:44.091Z,34.57
2024-02-07T00:40:44.115Z,34.59
2024-02-07T00:41:44.126Z,34.60
2024-02-07T00:42:44.139Z,34.59
2024-02-07T00:43:44.147Z,34.52
2024-02-07T00:44:44.144Z,34.52
2024-02-07T00:45:44.179Z,34.48
2024-02-07T00:46:44.197Z,34.50
2024-02-07T00:47:44.197Z,34.51
2024-02-07T00:48:44.203Z,34.49
2024-02-07T00:49:44.232Z,34.55
2024-02-07T00:50:44.195Z,34.44
2024-02-07T00:51:44.191Z,34.49
2024-02-07T00:52:44.271Z,34.51
2024-02-07T00:53:44.211Z,34.52
2024-02-07T00:54:44.229Z,34.54
2024-02-07T00:55:44.249Z,34.44
2024-02-07T00:56:44.238Z,34.43
2024-02-07T00:57:44.279Z,34.48
2024-02-07T00:58:44.397Z,34.43
2024-02-07T00:59:44.418Z,34.44
2024-02-07T01:00:44.354Z,34.46
2024-02-07T01:01:44.423Z,34.55
2024-02-07T01:02:44.305Z,34.56
2024-02-07T01:03:44.322Z,34.46
2024-02-07T01:04:44.450Z,34.46
2024-02-07T01:05:44.433Z,34.46
2024-02-07T01:06:44.382Z,34.47
2024-02-07T01:07:44.454Z,34.44
2024-02-07T01:08:44.389Z,34.48
2024-02-07T01:09:44.350Z,34.43
2024-02-07T01:10:44.486Z,34.47
2024-02-07T01:11:44.426Z,34.45
2024-02-07T01:12:44.383Z,34.43
2024-02-07T01:13:44.433Z,34.41
2024-02-07T01:14:44.424Z,34.38
2024-02-07T01:15:44.397Z,34.38
2024-02-07T01:16:44.448Z,34.44
2024-02-07T01:17:44.490Z,34.46
2024-02-07T01:18:44.432Z,34.42
2024-02-07T01:19:44.562Z,34.42
2024-02-07T01:20:44.532Z,34.42
2024-02-07T01:21:44.430Z,34.44
2024-02-07T01:22:44.551Z,34.44
2024-02-07T01:23:44.467Z,34.42
2024-02-07T01:24:44.465Z,34.43
2024-02-07T01:25:44.507Z,34.44
2024-02-07T01:26:44.471Z,34.44
2024-02-07T01:27:44.545Z,34.49
2024-02-07T01:28:44.525Z,34.54
2024-02-07T01:29:44.488Z,34.52
2024-02-07T01:30:44.483Z,34.52
2024-02-07T01:31:44.556Z,34.53
2024-02-07T01:32:44.501Z,34.52
2024-02-07T01:33:44.621Z,34.55
2024-02-07T01:34:44.532Z,34.54
2024-02-07T01:35:44.519Z,34.53
2024-02-07T01:36:44.538Z,34.52
2024-02-07T01:37:44.833Z,34.52
2024-02-07T01:38:44.531Z,34.56
2024-02-07T01:39:44.527Z,34.56
2024-02-07T01:40:44.681Z,34.52
2024-02-07T01:41:44.542Z,34.50
2024-02-07T01:42:44.548Z,34.44
2024-02-07T01:43:44.622Z,34.46
2024-02-07T01:44:44.562Z,34.44
2024-02-07T01:45:44.671Z,34.39
2024-02-07T01:46:44.625Z,34.39
2024-02-07T01:47:44.635Z,34.36
2024-02-07T01:48:45.001Z,34.39
2024-02-07T01:49:44.655Z,34.31
2024-02-07T01:50:44.610Z,34.27
2024-02-07T01:51:44.632Z,34.36
2024-02-07T01:52:44.664Z,34.32
2024-02-07T01:53:44.614Z,34.40
2024-02-07T01:54:44.697Z,34.41
2024-02-07T01:55:44.660Z,34.35
2024-02-07T01:56:44.725Z,34.36
2024-02-07T01:57:44.716Z,34.37
2024-02-07T01:58:44.721Z,34.37
2024-02-07T01:59:44.654Z,34.36
2024-02-07T02:00:44.741Z,34.36
2024-02-07T02:01:44.709Z,34.30
2024-02-07T02:02:44.689Z,34.35
2024-02-07T02:03:44.708Z,34.39
2024-02-07T02:04:44.876Z,34.40
2024-02-07T02:05:44.689Z,34.27
2024-02-07T02:06:44.809Z,34.23
2024-02-07T02:07:45.055Z,34.28
2024-02-07T02:08:44.721Z,34.27
2024-02-07T02:09:44.713Z,34.32
2024-02-07T02:10:44.834Z,34.29
2024-02-07T02:11:44.759Z,34.30
2024-02-07T02:12:44.846Z,34.22
2024-02-07T02:13:44.855Z,34.20
2024-02-07T02:14:44.800Z,34.26
2024-02-07T02:15:44.795Z,34.24
2024-02-07T02:16:44.899Z,34.28
2024-02-07T02:17:44.843Z,34.19
2024-02-07T02:18:44.806Z,34.23
2024-02-07T02:19:44.957Z,34.23
2024-02-07T02:20:44.943Z,34.26
2024-02-07T02:21:44.836Z,34.18
2024-02-07T02:22:44.888Z,34.22
2024-02-07T02:23:44.849Z,34.26
2024-02-07T02:24:44.884Z,34.25
2024-02-07T02:25:44.893Z,34.19
2024-02-07T02:26:44.871Z,34.22
2024-02-07T02:27:44.884Z,34.21
2024-02-07T02:28:44.961Z,34.21
2024-02-07T02:29:44.882Z,34.16
2024-02-07T02:30:45.003Z,34.16
2024-02-07T02:31:44.931Z,34.19
2024-02-07T02:32:44.977Z,34.19
2024-02-07T02:33:44.927Z,34.14
2024-02-07T02:34:45.037Z,34.19
2024-02-07T02:35:44.942Z,34.11
2024-02-07T02:36:44.930Z,34.15
2024-02-07T02:37:45.014Z,34.12
2024-02-07T02:38:44.935Z,34.11
2024-02-07T02:39:44.933Z,34.13
2024-02-07T02:40:45.065Z,34.14
2024-02-07T02:41:44.966Z,34.16
2024-02-07T02:42:44.998Z,34.14
2024-02-07T02:43:45.116Z,34.19
2024-02-07T02:44:45.031Z,34.16
2024-02-07T02:45:44.980Z,34.14
2024-02-07T02:46:45.052Z,34.07
2024-02-07T02:47:45.097Z,34.14
2024-02-07T02:48:45.185Z,34.11
2024-02-07T02:49:45.107Z,34.14
2024-02-07T02:50:45.019Z,34.10
2024-02-07T02:51:45.028Z,34.11
2024-02-07T02:52:45.113Z,34.15
2024-02-07T02:53:45.051Z,34.15
2024-02-07T02:54:45.041Z,34.10
2024-02-07T02:55:45.065Z,34.10
2024-02-07T02:56:45.052Z,34.14
2024-02-07T02:57:45.062Z,34.15
2024-02-07T02:58:45.147Z,34.15
2024-02-07T02:59:45.085Z,34.09
2024-02-07T03:00:45.155Z,34.18
2024-02-07T03:01:45.123Z,34.19
2024-02-07T03:02:45.105Z,34.11
2024-02-07T03:03:45.097Z,34.11
2024-02-07T03:04:45.216Z,34.13
2024-02-07T03:05:45.288Z,34.07
2024-02-07T03:06:45.128Z,34.10
2024-02-07T03:07:45.194Z,34.14
2024-02-07T03:08:45.140Z,33.99
2024-02-07T03:09:45.133Z,33.97
2024-02-07T03:10:45.192Z,33.97
2024-02-07T03:11:45.146Z,34.01
2024-02-07T03:12:45.160Z,33.95
2024-02-07T03:13:45.205Z,33.97
2024-02-07T03:14:45.182Z,34.03
2024-02-07T03:15:45.184Z,34.01
2024-02-07T03:16:45.255Z,33.97
2024-02-07T03:17:45.218Z,33.98
2024-02-07T03:18:45.257Z,33.96
2024-02-07T03:19:45.218Z,33.92
2024-02-07T03:20:45.230Z,33.92
2024-02-07T03:21:45.247Z,33.89
2024-02-07T03:22:45.327Z,33.92
2024-02-07T03:23:45.268Z,33.99
2024-02-07T03:24:45.270Z,33.93
2024-02-07T03:25:45.275Z,33.95
2024-02-07T03:26:45.302Z,33.93
2024-02-07T03:27:45.295Z,33.97
2024-02-07T03:28:45.314Z,33.92
2024-02-07T03:29:45.312Z,33.93
2024-02-07T03:30:45.323Z,33.94
2024-02-07T03:31:45.469Z,33.93
2024-02-07T03:32:45.389Z,33.90
2024-02-07T03:33:45.376Z,33.95
2024-02-07T03:34:45.393Z,33.89
2024-02-07T03:35:45.355Z,33.86
2024-02-07T03:36:45.371Z,33.85
2024-02-07T03:37:45.432Z,33.87
2024-02-07T03:38:45.391Z,33.89
2024-02-07T03:39:45.393Z,33.89
2024-02-07T03:40:45.444Z,33.87
2024-02-07T03:41:45.413Z,33.85
2024-02-07T03:42:45.432Z,33.85
2024-02-07T03:43:45.520Z,33.84
2024-02-07T03:44:45.424Z,33.80
2024-02-07T03:45:45.446Z,33.78
2024-02-07T03:46:45.502Z,33.77
2024-02-07T03:47:45.592Z,33.81
2024-02-07T03:48:45.476Z,33.81
2024-02-07T03:49:45.534Z,33.83
2024-02-07T03:50:45.453Z,33.83
2024-02-07T03:51:45.467Z,33.89
2024-02-07T03:52:45.526Z,33.83
2024-02-07T03:53:45.477Z,33.87
2024-02-07T03:54:45.499Z,33.79
2024-02-07T03:55:45.576Z,33.81
2024-02-07T03:56:45.567Z,33.82
2024-02-07T03:57:45.634Z,33.80
2024-02-07T03:58:45.745Z,33.76
2024-02-07T03:59:45.700Z,33.76
2024-02-07T04:00:45.752Z,33.78
2024-02-07T04:01:45.838Z,33.76
2024-02-07T04:02:45.861Z,33.74
2024-02-07T04:03:45.981Z,33.76
2024-02-07T04:04:46.139Z,33.69
2024-02-07T04:05:46.081Z,33.70
2024-02-07T04:06:46.235Z,33.72
2024-02-07T04:07:46.436Z,33.71
2024-02-07T04:08:46.453Z,33.67
2024-02-07T04:09:46.382Z,33.65
2024-02-07T04:10:46.433Z,33.65
2024-02-07T04:11:46.499Z,33.62
2024-02-07T04:12:46.566Z,33.65
2024-02-07T04:13:46.725Z,33.69
2024-02-07T04:14:46.701Z,33.64
2024-02-07T04:15:46.781Z,33.68
2024-02-07T04:16:46.985Z,33.62
2024-02-07T04:17:46.980Z,33.65
2024-02-07T04:18:47.082Z,33.60
2024-02-07T04:19:47.079Z,33.56
2024-02-07T04:20:47.125Z,33.48
2024-02-07T04:21:47.183Z,33.49
2024-02-07T04:22:47.285Z,33.46
2024-02-07T04:23:47.305Z,33.52
2024-02-07T04:24:47.323Z,33.46
2024-02-07T04:25:47.446Z,33.50
2024-02-07T04:26:47.410Z,33.46
2024-02-07T04:27:47.439Z,33.47
2024-02-07T04:28:47.563Z,33.53
2024-02-07T04:29:47.482Z,33.62
2024-02-07T04:30:47.487Z,33.63
2024-02-07T04:31:47.573Z,33.57
2024-02-07T04:32:47.557Z,33.55
2024-02-07T04:33:47.594Z,33.55
2024-02-07T04:34:47.606Z,33.56
2024-02-07T04:35:47.559Z,33.64
2024-02-07T04:36:47.567Z,33.64
2024-02-07T04:37:54.903Z,33.68
2024-02-07T04:38:54.817Z,33.69
2024-02-07T04:39:54.817Z,33.68
2024-02-07T04:40:54.871Z,33.68
2024-02-07T04:41:54.847Z,33.69
2024-02-07T04:42:54.842Z,33.65
2024-02-07T04:43:54.906Z,33.67
2024-02-07T04:44:54.851Z,33.67
2024-02-07T04:45:54.844Z,33.64
2024-02-07T04:46:54.941Z,33.67
2024-02-07T04:47:54.876Z,33.65
2024-02-07T04:48:54.952Z,33.64
2024-02-07T04:49:54.985Z,33.60
2024-02-07T04:50:54.840Z,33.59
2024-02-07T04:51:54.849Z,33.57
2024-02-07T04:52:54.967Z,33.59
2024-02-07T04:53:54.861Z,33.54
2024-02-07T04:54:54.846Z,33.58
2024-02-07T04:55:54.985Z,33.49
2024-02-07T04:56:54.865Z,33.56
2024-02-07T04:57:54.852Z,33.54
2024-02-07T04:58:54.997Z,33.53
2024-02-07T04:59:54.857Z,33.56
2024-02-07T05:00:54.872Z,33.52
2024-02-07T05:01:54.939Z,33.50
2024-02-07T05:02:54.873Z,33.45
2024-02-07T05:03:54.907Z,33.48
2024-02-07T05:04:54.952Z,33.46
2024-02-07T05:05:54.875Z,33.44
2024-02-07T05:06:54.893Z,33.43
2024-02-07T05:07:54.899Z,33.40
2024-02-07T05:08:54.878Z,33.42
2024-02-07T05:09:54.881Z,33.42
2024-02-07T05:10:55.000Z,33.40
2024-02-07T05:11:54.904Z,33.33
2024-02-07T05:12:54.966Z,33.35
2024-02-07T05:13:55.096Z,33.33
2024-02-07T05:14:55.078Z,33.31
2024-02-07T05:15:55.086Z,33.33
2024-02-07T05:16:55.156Z,33.26
2024-02-07T05:17:55.211Z,33.30
2024-02-07T05:18:55.287Z,33.27
2024-02-07T05:19:55.325Z,33.25
2024-02-07T05:20:55.315Z,33.23
2024-02-07T05:21:55.363Z,33.22
2024-02-07T05:22:55.464Z,33.20
2024-02-07T05:23:55.441Z,33.23
2024-02-07T05:24:55.519Z,33.25
2024-02-07T05:25:55.553Z,33.20
2024-02-07T05:26:55.581Z,33.23
2024-02-07T05:27:55.669Z,33.19
2024-02-07T05:28:55.815Z,33.22
2024-02-07T05:29:55.728Z,33.22
2024-02-07T05:30:55.800Z,33.19
2024-02-07T05:31:56.198Z,33.19
2024-02-07T05:32:56.080Z,33.24
2024-02-07T05:33:55.974Z,33.18
2024-02-07T05:34:56.057Z,33.21
2024-02-07T05:35:55.998Z,33.22
2024-02-07T05:36:56.007Z,33.16
2024-02-07T05:37:56.136Z,33.21
2024-02-07T05:38:56.079Z,33.18
2024-02-07T05:39:56.120Z,33.22
2024-02-07T05:40:56.207Z,33.22
2024-02-07T05:41:56.196Z,33.19
2024-02-07T05:42:56.259Z,33.18
2024-02-07T05:43:56.411Z,33.14
2024-02-07T05:44:56.354Z,33.11
2024-02-07T05:45:56.384Z,33.17
2024-02-07T05:46:56.564Z,33.14
2024-02-07T05:47:56.490Z,33.15
2024-02-07T05:48:56.547Z,33.13
2024-02-07T05:49:56.603Z,33.14
2024-02-07T05:50:56.565Z,33.11
2024-02-07T05:51:58.840Z,33.13
2024-02-07T05:52:56.694Z,33.14
2024-02-07T05:53:56.628Z,33.11
2024-02-07T05:54:56.626Z,33.11
2024-02-07T05:55:56.747Z,33.10
2024-02-07T05:56:57.685Z,33.13
2024-02-07T05:57:56.636Z,33.10
2024-02-07T05:58:56.642Z,33.10
2024-02-07T05:59:56.626Z,33.11
2024-02-07T06:00:56.643Z,33.07
2024-02-07T06:01:56.659Z,33.09
2024-02-07T06:02:56.629Z,33.04
2024-02-07T06:03:56.692Z,33.00
2024-02-07T06:04:56.695Z,33.06
2024-02-07T06:05:56.647Z,33.04
2024-02-07T06:06:56.670Z,33.03
2024-02-07T06:07:56.731Z,32.97
2024-02-07T06:08:56.667Z,32.99
2024-02-07T06:09:56.637Z,32.99
2024-02-07T06:10:56.815Z,32.97
2024-02-07T06:11:56.696Z,33.03
2024-02-07T06:12:56.733Z,32.97
2024-02-07T06:13:56.834Z,32.93
2024-02-07T06:14:56.790Z,32.95
2024-02-07T06:15:56.828Z,32.92
2024-02-07T06:16:56.912Z,32.96
2024-02-07T06:17:56.951Z,32.88
2024-02-07T06:18:56.950Z,32.88
2024-02-07T06:19:57.098Z,32.86
2024-02-07T06:20:57.085Z,32.92
2024-02-07T06:21:57.008Z,32.86
2024-02-07T06:22:57.103Z,32.85
2024-02-07T06:23:57.062Z,32.84
2024-02-07T06:24:57.126Z,32.88
2024-02-07T06:25:57.224Z,32.86
2024-02-07T06:26:57.202Z,32.86
2024-02-07T06:27:57.222Z,32.80
2024-02-07T06:28:57.345Z,32.80
2024-02-07T06:29:57.243Z,32.84
2024-02-07T06:30:57.306Z,32.86
2024-02-07T06:31:57.345Z,32.80
2024-02-07T06:32:57.398Z,32.74
2024-02-07T06:33:57.440Z,32.70
2024-02-07T06:34:57.484Z,32.77
2024-02-07T06:35:57.517Z,32.62
2024-02-07T06:36:57.468Z,32.71
2024-02-07T06:37:57.664Z,32.84
2024-02-07T06:38:57.572Z,32.87
2024-02-07T06:39:58.500Z,33.00
2024-02-07T06:40:57.648Z,33.08
2024-02-07T06:41:58.500Z,33.40
2024-02-07T06:42:57.989Z,33.45
2024-02-07T06:43:57.773Z,33.70
2024-02-07T06:44:57.683Z,34.35
2024-02-07T06:45:57.712Z,34.51
2024-02-07T06:46:57.762Z,34.77
2024-02-07T06:47:57.849Z,35.02
2024-02-07T06:48:57.788Z,35.01
2024-02-07T06:49:57.951Z,35.17
2024-02-07T06:50:57.825Z,35.28
2024-02-07T06:51:57.896Z,35.58
2024-02-07T06:52:58.077Z,35.77
2024-02-07T06:53:58.008Z,35.84
2024-02-07T06:54:58.060Z,36.19
2024-02-07T06:56:00.272Z,36.38
2024-02-07T06:56:58.258Z,36.54
2024-02-07T06:57:58.375Z,36.78
2024-02-07T06:58:58.518Z,36.94
2024-02-07T06:59:58.466Z,37.16
2024-02-07T07:00:58.540Z,37.38
2024-02-07T07:01:58.644Z,37.53
2024-02-07T07:02:58.729Z,37.71
2024-02-07T07:03:58.981Z,37.81
2024-02-07T07:04:58.827Z,38.25
2024-02-07T07:05:58.900Z,38.30
2024-02-07T07:06:58.929Z,38.37
2024-02-07T07:07:59.026Z,38.42
2024-02-07T07:08:59.040Z,38.52
2024-02-07T07:09:59.090Z,38.69
2024-02-07T07:10:59.225Z,38.90
2024-02-07T07:11:59.181Z,39.05
2024-02-07T07:12:59.228Z,39.11
2024-02-07T07:14:02.670Z,39.47
2024-02-07T07:14:59.261Z,39.52
2024-02-07T07:15:59.292Z,39.66
2024-02-07T07:16:59.366Z,40.30
2024-02-07T07:17:59.356Z,40.36
2024-02-07T07:18:59.386Z,40.28
2024-02-07T07:19:59.323Z,40.33
2024-02-07T07:20:59.285Z,40.75
2024-02-07T07:21:59.290Z,40.81
2024-02-07T07:23:08.092Z,40.87
2024-02-07T07:24:00.359Z,41.30
2024-02-07T07:24:59.292Z,41.17
2024-02-07T07:25:59.311Z,41.28
2024-02-07T07:27:02.549Z,41.49
2024-02-07T07:27:59.328Z,41.32
2024-02-07T07:28:59.426Z,41.42
2024-02-07T07:29:59.312Z,41.56
2024-02-07T07:30:59.323Z,41.51
2024-02-07T07:31:59.540Z,41.60
2024-02-07T07:32:59.419Z,41.77
2024-02-07T07:33:59.326Z,42.20
2024-02-07T07:34:59.425Z,42.91
2024-02-07T07:35:59.393Z,42.72
2024-02-07T07:36:59.439Z,42.75
2024-02-07T07:37:59.423Z,42.98
2024-02-07T07:38:59.334Z,42.56
2024-02-07T07:39:59.342Z,41.69
2024-02-07T07:40:59.525Z,40.72
2024-02-07T07:41:59.338Z,38.91
2024-02-07T07:42:59.346Z,37.88
2024-02-07T07:43:59.470Z,36.62
2024-02-07T07:44:59.373Z,36.55
2024-02-07T07:45:59.380Z,35.48
2024-02-07T07:46:59.389Z,35.03
2024-02-07T07:47:59.459Z,35.22
2024-02-07T07:48:59.424Z,34.83
2024-02-07T07:49:59.380Z,34.41
2024-02-07T07:50:59.375Z,34.02
2024-02-07T07:51:59.389Z,33.83
2024-02-07T07:52:59.457Z,33.64
2024-02-07T07:53:59.384Z,33.26
2024-02-07T07:54:59.420Z,32.86
2024-02-07T07:55:59.502Z,32.28
2024-02-07T07:56:59.357Z,32.05
2024-02-07T07:57:59.405Z,31.79
2024-02-07T07:58:59.415Z,31.24
2024-02-07T07:59:59.431Z,30.93
2024-02-07T08:00:59.407Z,30.63
2024-02-07T08:01:59.433Z,30.43
2024-02-07T08:02:59.361Z,30.35
2024-02-07T08:03:59.417Z,30.32
2024-02-07T08:04:59.471Z,30.26
2024-02-07T08:05:59.456Z,30.04
2024-02-07T08:06:59.403Z,30.04
2024-02-07T08:07:59.590Z,29.97
2024-02-07T08:08:59.381Z,29.56
2024-02-07T08:09:59.383Z,29.33
2024-02-07T08:10:59.389Z,29.34
2024-02-07T08:11:59.378Z,29.00
2024-02-07T08:12:59.531Z,28.94
2024-02-07T08:13:59.527Z,28.70
2024-02-07T08:14:59.425Z,28.73
2024-02-07T08:15:59.635Z,28.35
2024-02-07T08:16:59.455Z,28.36
2024-02-07T08:17:59.468Z,28.38
2024-02-07T08:18:59.427Z,28.33
2024-02-07T08:19:59.415Z,28.20
2024-02-07T08:20:59.408Z,28.12
2024-02-07T08:21:59.396Z,27.78
2024-02-07T08:22:59.470Z,27.96
2024-02-07T08:23:59.403Z,27.87
2024-02-07T08:24:59.412Z,27.75
2024-02-07T08:25:59.465Z,27.62
2024-02-07T08:26:59.505Z,27.48
2024-02-07T08:27:59.542Z,27.38
2024-02-07T08:28:59.617Z,27.43
2024-02-07T08:29:59.628Z,27.49
2024-02-07T08:30:59.681Z,27.33
2024-02-07T08:32:01.629Z,27.94
2024-02-07T08:33:00.013Z,28.87
2024-02-07T08:34:00.639Z,29.59
2024-02-07T08:35:00.041Z,30.28
2024-02-07T08:36:00.105Z,32.25
2024-02-07T08:37:00.015Z,32.48
2024-02-07T08:38:00.287Z,32.38
2024-02-07T08:39:00.115Z,32.66
2024-02-07T08:40:00.185Z,32.71
2024-02-07T08:41:00.725Z,32.93
2024-02-07T08:42:00.671Z,33.35
2024-02-07T08:43:00.610Z,33.05
2024-02-07T08:44:00.327Z,32.63
2024-02-07T08:45:00.251Z,32.19
2024-02-07T08:46:00.334Z,31.92
2024-02-07T08:47:00.549Z,31.69
2024-02-07T08:48:00.501Z,31.33
2024-02-07T08:49:00.450Z,31.11
2024-02-07T08:50:00.525Z,30.73
2024-02-07T08:51:00.593Z,30.42
2024-02-07T08:52:00.632Z,30.19
2024-02-07T08:53:00.798Z,29.78
2024-02-07T08:54:00.746Z,29.30
2024-02-07T08:55:00.737Z,29.05
2024-02-07T08:56:00.825Z,28.98
2024-02-07T08:57:00.794Z,28.09
2024-02-07T08:58:00.854Z,28.51
2024-02-07T08:59:00.925Z,28.09
2024-02-07T09:00:00.889Z,27.89
2024-02-07T09:01:00.956Z,27.56
2024-02-07T09:02:01.050Z,27.74
2024-02-07T09:03:00.982Z,27.64
2024-02-07T09:04:00.996Z,27.39
2024-02-07T09:05:01.075Z,27.36
2024-02-07T09:06:01.301Z,27.27
2024-02-07T09:07:01.178Z,27.06
2024-02-07T09:08:01.262Z,27.00
2024-02-07T09:09:01.308Z,26.88
2024-02-07T09:10:01.343Z,26.65
2024-02-07T09:11:01.483Z,26.69
2024-02-07T09:12:01.486Z,26.65
2024-02-07T09:13:01.570Z,26.71
2024-02-07T09:14:01.740Z,26.78
2024-02-07T09:15:01.719Z,26.60
2024-02-07T09:16:01.758Z,26.64
2024-02-07T09:17:01.883Z,27.04
2024-02-07T09:18:01.962Z,27.29
2024-02-07T09:19:02.001Z,27.52
2024-02-07T09:20:02.129Z,27.57
2024-02-07T09:21:02.118Z,27.75
2024-02-07T09:22:02.181Z,27.88
2024-02-07T09:23:02.254Z,28.12
2024-02-07T09:24:02.296Z,28.14
2024-02-07T09:25:02.377Z,28.27
2024-02-07T09:26:02.552Z,28.12
2024-02-07T09:27:02.578Z,27.99
2024-02-07T09:28:02.705Z,28.02
2024-02-07T09:29:02.736Z,27.89
2024-02-07T09:30:07.790Z,27.86
2024-02-07T09:31:03.631Z,27.80
2024-02-07T09:32:02.689Z,27.58
2024-02-07T09:33:03.189Z,27.60
2024-02-07T09:34:03.103Z,27.42
2024-02-07T09:35:02.754Z,27.49
2024-02-07T09:36:02.803Z,27.54
2024-02-07T09:37:02.651Z,27.38
2024-02-07T09:38:02.836Z,27.42
2024-02-07T09:39:03.069Z,27.23
2024-02-07T09:40:02.679Z,27.17
2024-02-07T09:41:03.668Z,27.11
2024-02-07T09:42:02.659Z,27.33
2024-02-07T09:43:03.101Z,27.52
2024-02-07T09:44:02.746Z,27.87
2024-02-07T09:45:02.679Z,28.16
2024-02-07T09:46:02.719Z,28.87
2024-02-07T09:47:02.839Z,28.70
2024-02-07T09:48:03.233Z,28.90
2024-02-07T09:49:02.842Z,28.95
2024-02-07T09:50:02.939Z,29.02
2024-02-07T09:51:02.820Z,29.15
2024-02-07T09:52:02.837Z,29.27
2024-02-07T09:53:03.145Z,29.36
2024-02-07T09:54:02.885Z,29.39
2024-02-07T09:55:02.960Z,29.48
2024-02-07T09:56:02.983Z,29.49
2024-02-07T09:57:02.900Z,29.61
2024-02-07T09:58:02.959Z,29.68
2024-02-07T09:59:02.992Z,30.14
2024-02-07T10:00:03.060Z,30.00
2024-02-07T10:01:03.141Z,29.99
2024-02-07T10:02:03.400Z,30.27
2024-02-07T10:03:03.255Z,30.11
2024-02-07T10:04:03.306Z,30.14
2024-02-07T10:05:03.485Z,30.10
2024-02-07T10:06:03.457Z,30.18
2024-02-07T10:07:03.484Z,30.15
2024-02-07T10:08:03.585Z,30.05
2024-02-07T10:09:03.629Z,29.97
2024-02-07T10:10:03.719Z,29.89
2024-02-07T10:11:03.752Z,29.98
2024-02-07T10:12:03.835Z,30.04
2024-02-07T10:13:04.612Z,30.04
2024-02-07T10:14:04.167Z,30.08
2024-02-07T10:15:04.032Z,30.25
2024-02-07T10:16:06.485Z,30.47
2024-02-07T10:17:04.194Z,30.31
2024-02-07T10:18:04.157Z,30.55
2024-02-07T10:19:04.107Z,30.50
2024-02-07T10:20:04.150Z,30.43
2024-02-07T10:21:04.093Z,30.84
2024-02-07T10:22:04.103Z,30.79
2024-02-07T10:23:04.213Z,31.07
2024-02-07T10:24:04.607Z,30.96
2024-02-07T10:25:04.084Z,30.86
2024-02-07T10:26:04.122Z,30.68
2024-02-07T10:27:04.098Z,30.64
2024-02-07T10:28:04.126Z,30.60
2024-02-07T10:29:04.220Z,30.53
2024-02-07T10:30:04.111Z,30.57
2024-02-07T10:31:04.104Z,31.11
2024-02-07T10:32:04.170Z,30.93
2024-02-07T10:33:04.694Z,31.39
2024-02-07T10:34:04.259Z,31.05
2024-02-07T10:35:04.187Z,30.81
2024-02-07T10:36:04.150Z,30.95
2024-02-07T10:37:04.106Z,31.18
2024-02-07T10:38:04.226Z,31.07
2024-02-07T10:39:04.701Z,30.98
2024-02-07T10:40:05.109Z,30.87
2024-02-07T10:41:04.312Z,31.12
2024-02-07T10:42:04.118Z,30.99
2024-02-07T10:43:04.117Z,30.85
2024-02-07T10:44:04.162Z,30.71
2024-02-07T10:45:04.130Z,30.59
2024-02-07T10:46:04.976Z,30.64
2024-02-07T10:47:04.263Z,30.57
2024-02-07T10:48:04.239Z,30.53
2024-02-07T10:49:04.870Z,30.53
2024-02-07T10:50:04.310Z,30.46
2024-02-07T10:51:04.206Z,30.43
2024-02-07T10:52:04.122Z,30.35
2024-02-07T10:53:04.644Z,30.35
2024-02-07T10:54:04.628Z,30.28
2024-02-07T10:55:04.134Z,30.29
2024-02-07T10:56:04.268Z,30.34
2024-02-07T10:57:04.124Z,30.34
2024-02-07T10:58:04.145Z,30.30
2024-02-07T10:59:04.176Z,30.34
2024-02-07T11:00:04.209Z,30.34
2024-02-07T11:01:04.244Z,30.32
2024-02-07T11:02:04.233Z,30.35
2024-02-07T11:03:04.140Z,30.40
2024-02-07T11:04:04.199Z,30.38
2024-02-07T11:05:04.409Z,30.37
2024-02-07T11:06:04.457Z,30.42
2024-02-07T11:07:04.398Z,30.37
2024-02-07T11:08:04.464Z,30.40
2024-02-07T11:09:04.434Z,30.42
2024-02-07T11:10:04.527Z,30.41
2024-02-07T11:11:04.612Z,30.37
2024-02-07T11:12:04.538Z,30.44
2024-02-07T11:13:04.555Z,30.41
2024-02-07T11:14:04.645Z,30.37
2024-02-07T11:15:04.643Z,30.41
2024-02-07T11:16:06.837Z,30.38
2024-02-07T11:17:04.762Z,30.39
2024-02-07T11:18:04.830Z,30.31
2024-02-07T11:19:04.845Z,30.48
2024-02-07T11:20:04.884Z,30.56
2024-02-07T11:21:04.889Z,30.47
2024-02-07T11:22:05.422Z,30.64
2024-02-07T11:23:05.068Z,30.80
2024-02-07T11:24:05.012Z,30.89
2024-02-07T11:25:05.108Z,30.97
2024-02-07T11:26:05.154Z,31.31
2024-02-07T11:27:05.163Z,31.50
2024-02-07T11:28:05.158Z,31.79
2024-02-07T11:29:07.448Z,31.51
2024-02-07T11:30:05.207Z,31.68
2024-02-07T11:31:05.208Z,31.74
2024-02-07T11:32:05.249Z,31.70
2024-02-07T11:33:05.732Z,31.77
2024-02-07T11:34:05.276Z,31.94
2024-02-07T11:35:05.395Z,32.37
2024-02-07T11:36:05.323Z,32.50
2024-02-07T11:37:05.308Z,32.58
2024-02-07T11:38:05.295Z,32.41
2024-02-07T11:39:05.226Z,32.48
2024-02-07T11:40:05.234Z,32.35
2024-02-07T11:41:05.270Z,32.46
2024-02-07T11:42:05.241Z,32.42
2024-02-07T11:43:05.226Z,32.43
2024-02-07T11:44:05.236Z,32.64
2024-02-07T11:45:05.237Z,32.56
2024-02-07T11:46:05.279Z,32.46
2024-02-07T11:47:05.263Z,32.46
2024-02-07T11:48:05.303Z,32.74
2024-02-07T11:49:05.274Z,32.62
2024-02-07T11:50:05.298Z,32.95
2024-02-07T11:51:05.257Z,32.80
2024-02-07T11:52:05.247Z,33.01
2024-02-07T11:53:05.394Z,32.51
2024-02-07T11:54:05.295Z,32.83
2024-02-07T11:55:05.256Z,32.70
2024-02-07T11:56:05.370Z,32.71
2024-02-07T11:57:05.250Z,32.54
2024-02-07T11:58:05.286Z,32.75
2024-02-07T11:59:05.316Z,32.64
2024-02-07T12:00:05.261Z,32.53
2024-02-07T12:01:05.316Z,32.43
2024-02-07T12:02:05.294Z,32.22
2024-02-07T12:03:05.276Z,32.15
2024-02-07T12:04:05.693Z,32.18
2024-02-07T12:05:05.380Z,32.08
2024-02-07T12:06:05.705Z,32.19
2024-02-07T12:07:05.371Z,32.26
2024-02-07T12:08:05.323Z,32.12
2024-02-07T12:09:05.289Z,32.16
2024-02-07T12:10:05.286Z,32.08
2024-02-07T12:11:07.404Z,32.16
2024-02-07T12:12:05.282Z,32.71
2024-02-07T12:13:05.322Z,33.16
2024-02-07T12:14:05.307Z,33.16
2024-02-07T12:15:05.308Z,33.11
2024-02-07T12:16:05.315Z,33.08
2024-02-07T12:17:05.351Z,33.14
2024-02-07T12:18:05.308Z,33.11
2024-02-07T12:19:05.343Z,33.07
2024-02-07T12:20:05.567Z,33.02
2024-02-07T12:21:05.554Z,32.98
2024-02-07T12:22:05.291Z,33.03
2024-02-07T12:23:05.349Z,32.91
2024-02-07T12:24:05.289Z,32.97
2024-02-07T12:25:05.327Z,32.95
2024-02-07T12:26:05.510Z,32.94
2024-02-07T12:27:05.299Z,32.98
2024-02-07T12:28:05.302Z,32.97
2024-02-07T12:29:05.388Z,33.00
2024-02-07T12:30:05.318Z,32.94
2024-02-07T12:31:05.305Z,33.02
2024-02-07T12:32:05.348Z,32.98
2024-02-07T12:33:05.892Z,33.00
2024-02-07T12:34:05.384Z,33.02
2024-02-07T12:35:05.339Z,33.05
2024-02-07T12:36:05.319Z,33.05
2024-02-07T12:37:05.332Z,33.05
2024-02-07T12:38:05.392Z,33.06
2024-02-07T12:39:05.324Z,33.11
2024-02-07T12:40:05.337Z,33.07
2024-02-07T12:41:05.393Z,33.13
2024-02-07T12:42:05.335Z,33.13
2024-02-07T12:43:05.364Z,33.14
2024-02-07T12:44:05.482Z,33.16
2024-02-07T12:45:05.445Z,33.17
2024-02-07T12:46:05.499Z,33.19
2024-02-07T12:47:05.593Z,33.20
2024-02-07T12:48:05.736Z,33.27
2024-02-07T12:49:05.754Z,33.24
2024-02-07T12:50:05.756Z,33.29
2024-02-07T12:51:05.755Z,33.28
2024-02-07T12:52:05.834Z,33.30
2024-02-07T12:53:05.953Z,33.27